Data for 06/08/2010

Time Sea-Level Adjusted Pressure Absolute Pressure Temperature Relative Humidity Dew Point   
(mb) (inHg) (mb) (inHg) (C) (F) (%) (C) (F)
00:05 1020 30.12 850 25.1 8.6 47.4 68 3 37.5
00:10 1020 30.12 850 25.1 8.7 47.6 68 3.1 37.6
00:15 1021 30.15 850 25.1 8.8 47.8 67 3.1 37.6
00:20 1021 30.15 850 25.1 8.9 48 68 3.3 37.9
00:25 1021 30.15 850 25.1 8.9 48 68 3.3 37.9
00:30 1021 30.15 850 25.1 8.8 47.9 67 3.2 37.7
00:35 1021 30.15 850 25.1 8.8 47.9 69 3.4 38.2
00:40 1021 30.15 850 25.1 8.6 47.5 68 3.1 37.6
00:45 1021 30.15 850 25.1 8.5 47.3 68 3 37.4
00:50 1021 30.15 850 25.1 8.4 47.1 69 3 37.5
00:55 1021 30.15 850 25.1 8.2 46.8 71 3.4 38.1
01:00 1021 30.15 850 25.1 7.9 46.2 72 3.1 37.6
01:05 1021 30.15 850 25.1 7.9 46.2 72 3.1 37.5
01:10 1021 30.15 850 25.1 7.8 46 73 3.3 37.9
01:15 1021 30.15 850 25.1 7.6 45.7 74 3.3 38
01:20 1021 30.15 850 25.1 7.4 45.4 74 3.2 37.7
01:25 1021 30.15 850 25.1 7.3 45.1 76 3.3 37.9
01:30 1021 30.15 850 25.1 7 44.6 78 3.4 38.1
01:35 1021 30.15 850 25.1 7 44.5 76 3 37.3
01:40 1021 30.15 850 25.1 7.1 44.7 76 3.2 37.7
01:45 1021 30.15 850 25.1 6.7 44.1 77 3.1 37.5
01:50 1021 30.15 850 25.1 6.7 44.1 78 3.2 37.7
01:55 1021 30.15 850 25.1 6.7 44.1 76 2.9 37.1
02:00 1021 30.15 850 25.1 6.9 44.4 74 2.5 36.6
02:05 1021 30.15 850 25.1 7.1 44.9 75 3 37.4
02:10 1021 30.15 850 25.1 6.8 44.2 75 2.7 36.9
02:15 1021 30.15 850 25.1 6.7 44.1 75 2.6 36.6
02:20 1021 30.15 850 25.1 6.7 44 76 2.7 36.9
02:25 1021 30.15 850 25.1 6.6 43.8 75 2.5 36.6
02:30 1021 30.15 850 25.1 6.7 44 75 2.6 36.8
02:35 1021 30.15 850 25.1 6.6 44 76 2.7 36.8
02:40 1021 30.15 850 25.1 6.6 43.8 76 2.7 36.8
02:45 1021 30.15 850 25.1 6.5 43.6 76 2.5 36.4
02:50 1021 30.15 850 25.1 6.6 43.9 74 2.3 36.1
02:55 1021 30.15 850 25.1 6.7 44.1 75 2.5 36.6
03:00 1021 30.15 850 25.1 6.6 43.9 76 2.7 36.9
03:05 1021 30.15 850 25.1 6.4 43.5 76 2.5 36.6
03:10 1021 30.15 850 25.1 6.3 43.3 77 2.6 36.7
03:15 1021 30.15 851 25.13 6.3 43.3 77 2.5 36.5
03:20 1021 30.15 850 25.1 6.4 43.4 76 2.4 36.2
03:25 1021 30.15 851 25.13 6.4 43.5 77 2.6 36.7
03:30 1021 30.15 851 25.13 6.2 43.1 78 2.6 36.8
03:35 1021 30.15 851 25.13 5.9 42.6 80 2.8 37
03:40 1021 30.15 851 25.13 5.6 42 83 2.9 37.2
03:45 1021 30.15 851 25.13 5.2 41.4 84 2.7 36.9
03:50 1021 30.15 851 25.13 5.2 41.3 84 2.6 36.7
03:55 1021 30.15 851 25.13 5.5 41.9 80 2.4 36.3
04:00 1021 30.15 851 25.13 5.6 42.2 81 2.6 36.7
04:05 1021 30.15 851 25.13 5.4 41.7 84 2.8 37.1
04:10 1021 30.15 851 25.13 5.1 41.2 83 2.5 36.5
04:15 1021 30.15 851 25.13 5.5 41.8 81 2.4 36.3
04:20 1021 30.15 851 25.13 5.8 42.5 79 2.5 36.6
04:25 1021 30.15 851 25.13 5.9 42.6 78 2.4 36.3
04:30 1021 30.15 851 25.13 5.9 42.6 79 2.5 36.5
04:35 1022 30.18 851 25.13 5.8 42.4 79 2.5 36.5
04:40 1022 30.18 851 25.13 5.5 41.9 84 3 37.4
04:45 1022 30.18 851 25.13 4.6 40.3 87 2.6 36.6
04:50 1022 30.18 851 25.13 4.8 40.6 85 2.4 36.4
04:55 1022 30.18 851 25.13 5.3 41.5 81 2.3 36.2
05:00 1022 30.18 851 25.13 5.5 41.8 82 2.5 36.6
05:05 1022 30.18 851 25.13 5.1 41.2 84 2.7 36.9
05:10 1022 30.18 851 25.13 4.6 40.3 86 2.6 36.6
05:15 1022 30.18 851 25.13 4.6 40.3 86 2.4 36.4
05:20 1022 30.18 851 25.13 5.3 41.5 79 2 35.6
05:25 1022 30.18 851 25.13 6.1 42.9 75 2 35.5
05:30 1022 30.18 851 25.13 6.5 43.7 74 2.2 35.9
05:35 1022 30.18 851 25.13 6.5 43.7 74 2.2 36
05:40 1022 30.18 851 25.13 6.4 43.5 75 2.2 36
05:45 1022 30.18 851 25.13 6.1 43 77 2.4 36.2
05:50 1022 30.18 851 25.13 5.5 41.9 80 2.3 36.1
05:55 1022 30.18 851 25.13 5.4 41.8 79 2.1 35.9
06:00 1022 30.18 851 25.13 5.5 41.9 79 2.1 35.8
06:05 1022 30.18 851 25.13 5.6 42.1 79 2.2 36
06:10 1022 30.18 851 25.13 5.2 41.4 79 2 35.6
06:15 1022 30.18 851 25.13 5.4 41.7 77 1.8 35.2
06:20 1022 30.18 851 25.13 5.6 42.1 77 1.8 35.3
06:25 1022 30.18 851 25.13 5.8 42.5 76 2 35.5
06:30 1022 30.18 851 25.13 6 42.8 76 2.2 35.9
06:35 1022 30.18 851 25.13 6 42.9 76 2.1 35.8
06:40 1022 30.18 851 25.13 6.4 43.5 74 2.1 35.8
06:45 1022 30.18 851 25.13 6.8 44.2 73 2.2 36
06:50 1022 30.18 851 25.13 7.1 44.8 73 2.7 36.8
06:55 1022 30.18 851 25.13 7 44.6 74 2.7 36.8
07:00 1022 30.18 851 25.13 7 44.6 75 2.9 37.2
07:05 1022 30.18 851 25.13 7.2 44.9 74 2.9 37.2
07:10 1022 30.18 851 25.13 7.7 45.8 74 3.3 37.9
07:15 1022 30.18 851 25.13 7.8 46.1 74 3.5 38.3
07:20 1022 30.18 851 25.13 7.8 46.1 73 3.3 38
07:25 1022 30.18 851 25.13 8 46.4 73 3.5 38.3
07:30 1022 30.18 851 25.13 8.4 47.1 71 3.5 38.2
07:35 1022 30.18 851 25.13 9.1 48.3 68 3.5 38.3
07:40 1022 30.18 851 25.13 9.5 49.1 66 3.6 38.4
07:45 1022 30.18 851 25.13 10.1 50.1 63 3.4 38.1
07:50 1022 30.18 851 25.13 10.1 50.2 66 4.1 39.3
07:55 1022 30.18 851 25.13 10 50 64 3.6 38.5
08:00 1022 30.18 851 25.13 10 49.9 65 3.8 38.8
08:05 1022 30.18 851 25.13 9.7 49.4 66 3.8 38.8
08:10 1022 30.18 851 25.13 9.8 49.7 64 3.3 37.9
08:15 1022 30.18 851 25.13 10.6 51 62 3.6 38.4
08:20 1022 30.18 851 25.13 10.8 51.4 60 3.3 37.9
08:25 1022 30.18 851 25.13 10.9 51.7 59 3.3 38
08:30 1022 30.18 851 25.13 11.1 51.9 57 2.9 37.2
08:35 1022 30.18 851 25.13 11.8 53.2 54 2.8 37.1
08:40 1022 30.18 851 25.13 11.9 53.5 53 2.8 37.1
08:45 1022 30.18 851 25.13 11.6 52.8 56 3.3 37.9
08:50 1022 30.18 851 25.13 11.7 53 53 2.6 36.7
08:55 1022 30.18 851 25.13 11.8 53.3 51 2.1 35.8
09:00 1022 30.18 851 25.13 11.7 53.1 51 1.9 35.5
09:05 1022 30.18 851 25.13 12 53.6 50 2 35.6
09:10 1022 30.18 851 25.13 12.7 54.9 50 2.6 36.7
09:15 1022 30.18 851 25.13 11.9 53.4 53 2.7 36.9
09:20 1022 30.18 851 25.13 12.5 54.5 49 2.2 36
09:25 1022 30.18 852 25.16 12.9 55.2 49 2.5 36.5
09:30 1022 30.18 852 25.16 12.6 54.6 48 2 35.6
09:35 1022 30.18 852 25.16 12.5 54.5 49 2.1 35.8
09:40 1022 30.18 852 25.16 13.3 55.9 42 0.5 33
09:45 1022 30.18 852 25.16 13.7 56.6 44 1.6 34.8
09:50 1022 30.18 851 25.13 13.8 56.8 44 1.9 35.5
09:55 1022 30.18 851 25.13 13.6 56.5 43 1.3 34.4
10:00 1022 30.18 851 25.13 14.3 57.7 42 1.7 35
10:05 1022 30.18 851 25.13 14.3 57.7 43 2 35.6
10:10 1022 30.18 851 25.13 13.7 56.6 45 2 35.7
10:15 1022 30.18 851 25.13 13.7 56.6 45 2 35.5
10:20 1022 30.18 851 25.13 13.7 56.6 46 2.5 36.5
10:25 1022 30.18 851 25.13 13.8 56.9 43 1.5 34.6
10:30 1022 30.18 851 25.13 13.7 56.6 42 1 33.8
10:35 1022 30.18 851 25.13 13.7 56.6 41 0.7 33.2
10:40 1022 30.18 851 25.13 14.1 57.4 41 1.3 34.4
10:45 1022 30.18 851 25.13 14.4 57.9 41 1.4 34.4
10:50 1022 30.18 851 25.13 15.1 59.1 40 1.5 34.7
10:55 1022 30.18 851 25.13 13.6 56.5 45 1.9 35.3
11:00 1022 30.18 851 25.13 13 55.4 46 1.6 34.9
11:05 1022 30.18 851 25.13 13.9 56.9 41 0.9 33.7
11:10 1022 30.18 851 25.13 13.5 56.3 43 1.2 34.2
11:15 1022 30.18 851 25.13 14.2 57.6 39 0.4 32.8
11:20 1022 30.18 851 25.13 14.4 57.9 41 1.4 34.5
11:25 1022 30.18 851 25.13 14.5 58 43 2.2 36
11:30 1022 30.18 851 25.13 14.5 58.1 41 1.5 34.8
11:35 1021 30.15 851 25.13 15.1 59.2 42 2.3 36.2
11:40 1021 30.15 851 25.13 14 57.2 41 1.1 34
11:45 1021 30.15 851 25.13 14.2 57.5 42 1.4 34.6
11:50 1021 30.15 851 25.13 13.6 56.4 42 1.1 33.9
11:55 1021 30.15 850 25.1 14.5 58 42 1.8 35.2
12:00 1021 30.15 850 25.1 14.6 58.2 41 1.4 34.5
12:05 1021 30.15 850 25.1 15.2 59.4 38 1.2 34.2
12:10 1021 30.15 850 25.1 15.4 59.8 40 1.9 35.3
12:15 1021 30.15 850 25.1 15.4 59.7 38 1.2 34.2
12:20 1021 30.15 850 25.1 14.4 58 39 0.8 33.5
12:25 1021 30.15 850 25.1 15.2 59.4 37 0.6 33.1
12:30 1021 30.15 850 25.1 16.5 61.6 34 0.7 33.2
12:35 1021 30.15 850 25.1 17.1 62.8 33 0.8 33.4
12:40 1021 30.15 850 25.1 16.8 62.2 36 1.7 35
12:45 1021 30.15 850 25.1 15.4 59.7 38 1.1 34.1
12:50 1021 30.15 850 25.1 15.5 59.9 39 1.7 35.1
12:55 1021 30.15 850 25.1 15.7 60.2 34 -0 32
13:00 1021 30.15 850 25.1 17.1 62.8 32 0.3 32.5
13:05 1021 30.15 850 25.1 17.1 62.9 34 1.1 34
13:10 1021 30.15 850 25.1 16.9 62.5 33 0.7 33.3
13:15 1020 30.12 850 25.1 17.6 63.6 32 0.8 33.5
13:20 1020 30.12 850 25.1 17.7 63.8 32 1 33.8
13:25 1020 30.12 850 25.1 17.6 63.6 31 0.4 32.8
13:30 1020 30.12 850 25.1 17.6 63.7 31 0.4 32.8
13:35 1020 30.12 850 25.1 18.1 64.6 30 0.3 32.5
13:40 1020 30.12 850 25.1 18 64.5 29 0.1 32.1
13:45 1020 30.12 850 25.1 18 64.5 30 0.4 32.8
13:50 1020 30.12 850 25.1 17.9 64.2 32 1.2 34.1
13:55 1020 30.12 849 25.07 16.7 62.1 31 -0.2 31.6
14:00 1020 30.12 849 25.07 18.1 64.5 29 -0.1 31.8
14:05 1020 30.12 849 25.07 17.9 64.3 28 -0.6 31
14:10 1020 30.12 849 25.07 18.1 64.6 29 -0.1 31.8
14:15 1020 30.12 849 25.07 18.7 65.7 28 0 32.1
14:20 1020 30.12 849 25.07 18.3 64.9 29 0.2 32.4
14:25 1020 30.12 849 25.07 17 62.6 31 -0.3 31.4
14:30 1020 30.12 849 25.07 17.2 63 29 -0.7 30.7
14:35 1020 30.12 849 25.07 17.9 64.3 28 -0.8 30.6
14:40 1020 30.12 849 25.07 17.9 64.3 28 -0.6 30.9
14:45 1020 30.12 849 25.07 17.2 63 29 -0.7 30.7
14:50 1020 30.12 849 25.07 18 64.4 27 -1.2 29.9
14:55 1020 30.12 849 25.07 18.7 65.6 26 -0.9 30.3
15:00 1020 30.12 849 25.07 18.6 65.4 26 -1.1 30.1
15:05 1020 30.12 849 25.07 18.6 65.4 25 -2 28.5
15:10 1020 30.12 849 25.07 19 66.1 25 -1.2 29.9
15:15 1020 30.12 849 25.07 19.3 66.7 24 -1.4 29.5
15:20 1020 30.12 849 25.07 19.5 67.2 24 -1.2 29.9
15:25 1020 30.12 849 25.07 19.4 66.9 24 -1.6 29.1
15:30 1019 30.09 849 25.07 19.4 67 23 -2.1 28.2
15:35 1019 30.09 849 25.07 18.3 65 25 -2 28.4
15:40 1019 30.09 849 25.07 19.2 66.5 23 -2.5 27.6
15:45 1019 30.09 849 25.07 19.7 67.4 22 -2.6 27.3
15:50 1019 30.09 849 25.07 19.8 67.6 23 -1.6 29.1
15:55 1019 30.09 848 25.04 19.8 67.7 22 -2.3 27.8
16:00 1019 30.09 848 25.04 20 68 21 -2.8 27
16:05 1019 30.09 848 25.04 20.5 69 21 -2.2 28.1
16:10 1019 30.09 848 25.04 19.7 67.5 23 -1.9 28.6
16:15 1019 30.09 848 25.04 19.5 67.2 23 -1.8 28.8
16:20 1019 30.09 848 25.04 19.5 67 22 -2.6 27.3
16:25 1019 30.09 848 25.04 19.1 66.4 23 -2.4 27.6
16:30 1019 30.09 848 25.04 19.4 67 24 -1.7 28.9
16:35 1019 30.09 848 25.04 19.8 67.7 21 -2.7 27.1
16:40 1019 30.09 848 25.04 20 68 22 -2.4 27.6
16:45 1019 30.09 848 25.04 19.6 67.2 21 -3 26.5
16:50 1019 30.09 848 25.04 19 66.1 24 -2.1 28.1
16:55 1019 30.09 848 25.04 19.3 66.8 23 -2.2 28
17:00 1019 30.09 848 25.04 18.8 65.9 25 -1.7 28.9
17:05 1019 30.09 848 25.04 19.7 67.4 22 -2.7 27.1
17:10 1019 30.09 848 25.04 19.8 67.7 21 -2.8 27
17:15 1019 30.09 848 25.04 19.8 67.6 22 -2.4 27.6
17:20 1019 30.09 848 25.04 20.3 68.6 22 -2.1 28.3
17:25 1019 30.09 848 25.04 19.8 67.6 22 -2.3 27.9
17:30 1019 30.09 848 25.04 19.8 67.6 22 -2.3 27.8
17:35 1019 30.09 848 25.04 20 68 22 -2.5 27.6
17:40 1019 30.09 848 25.04 20.1 68.1 22 -2.3 27.9
17:45 1019 30.09 848 25.04 19.7 67.5 22 -2.5 27.5
17:50 1019 30.09 848 25.04 18.9 65.9 24 -2.2 28.1
17:55 1018 30.06 848 25.04 19 66.2 24 -1.8 28.8
18:00 1018 30.06 848 25.04 19.1 66.4 24 -2.1 28.3
18:05 1018 30.06 848 25.04 19.9 67.8 22 -2.5 27.5
18:10 1018 30.06 848 25.04 20.1 68.1 21 -2.5 27.5
18:15 1018 30.06 848 25.04 19.5 67.1 22 -2.3 27.8
18:20 1018 30.06 848 25.04 19.7 67.5 22 -2.6 27.3
18:25 1018 30.06 848 25.04 20 68 22 -2.5 27.6
18:30 1018 30.06 848 25.04 19.5 67.2 22 -2.8 27
18:35 1018 30.06 847 25.01 19.5 67.2 21 -3.2 26.2
18:40 1018 30.06 847 25.01 19.6 67.3 21 -3.3 26.1
18:45 1018 30.06 847 25.01 19.7 67.5 22 -2.7 27.2
18:50 1018 30.06 847 25.01 19.4 66.9 22 -2.5 27.6
18:55 1018 30.06 847 25.01 19.8 67.6 21 -2.9 26.8
19:00 1018 30.06 847 25.01 20 68 21 -2.6 27.4
19:05 1018 30.06 847 25.01 20.1 68.1 21 -2.9 26.7
19:10 1018 30.06 847 25.01 20.1 68.3 21 -2.8 27
19:15 1018 30.06 847 25.01 19.3 66.8 21 -3.5 25.6
19:20 1018 30.06 847 25.01 19.1 66.4 22 -3.1 26.4
19:25 1018 30.06 847 25.01 19.1 66.4 22 -2.8 27
19:30 1018 30.06 847 25.01 18.7 65.6 21 -4.2 24.4
19:35 1018 30.06 847 25.01 18.3 65 20 -4.8 23.4
19:40 1018 30.06 847 25.01 18.4 65.2 20 -4.6 23.8
19:45 1018 30.06 847 25.01 18.4 65.1 21 -4.4 24.1
19:50 1018 30.06 847 25.01 18.3 65 20 -4.7 23.5
19:55 1018 30.06 847 25.01 18.2 64.7 20 -5.1 22.7
20:00 1018 30.06 847 25.01 18.2 64.7 22 -4 24.9
20:05 1018 30.06 847 25.01 18.2 64.8 21 -4.2 24.4
20:10 1018 30.06 847 25.01 18.2 64.7 21 -4.4 24.1
20:15 1018 30.06 847 25.01 18.2 64.8 21 -4.2 24.5
20:20 1018 30.06 847 25.01 18.2 64.7 21 -4.2 24.4
20:25 1018 30.06 847 25.01 18.1 64.5 22 -3.7 25.4
20:30 1018 30.06 847 25.01 17.9 64.3 23 -3.4 25.8
20:35 1018 30.06 847 25.01 17.8 64 24 -2.7 27.1
20:40 1018 30.06 847 25.01 17.7 63.9 25 -2.2 28
20:45 1018 30.06 847 25.01 17.6 63.7 25 -2.5 27.5
20:50 1018 30.06 847 25.01 17.6 63.6 25 -2.4 27.6
20:55 1018 30.06 847 25.01 17.5 63.5 26 -1.8 28.7
21:00 1018 30.06 847 25.01 17.4 63.4 27 -1.5 29.2
21:05 1018 30.06 847 25.01 17.3 63.1 29 -0.7 30.7
21:10 1018 30.06 847 25.01 16.9 62.5 33 0.9 33.5
21:15 1018 30.06 847 25.01 16.4 61.4 38 2.1 35.8
21:20 1018 30.06 847 25.01 16 60.9 38 2 35.6
21:25 1018 30.06 847 25.01 15.8 60.5 39 1.8 35.3
21:30 1018 30.06 847 25.01 15.7 60.2 39 1.8 35.2
21:35 1018 30.06 847 25.01 15.5 59.8 37 1.1 34
21:40 1018 30.06 847 25.01 15.4 59.7 36 0.6 33
21:45 1018 30.06 847 25.01 15.3 59.5 35 -0 31.9
21:50 1018 30.06 847 25.01 15.1 59.3 35 0.1 32.1
21:55 1018 30.06 847 25.01 14.9 58.8 35 -0.3 31.5
22:00 1018 30.06 847 25.01 14.8 58.6 34 -0.9 30.4
22:05 1018 30.06 847 25.01 14.9 58.8 32 -1.6 29.1
22:10 1018 30.06 847 25.01 15.1 59.2 30 -2.3 27.8
22:15 1018 30.06 847 25.01 15.2 59.3 31 -1.8 28.8
22:20 1018 30.06 847 25.01 15 59 31 -1.9 28.6
22:25 1018 30.06 847 25.01 15.1 59.1 30 -2.1 28.2
22:30 1018 30.06 847 25.01 15.1 59.1 31 -1.7 28.9
22:35 1018 30.06 847 25.01 15 59.1 30 -2.3 27.8
22:40 1018 30.06 847 25.01 15.1 59.2 30 -2.4 27.6
22:45 1018 30.06 847 25.01 15.1 59.2 29 -2.8 27
22:50 1018 30.06 847 25.01 15 59.1 30 -2.5 27.4
22:55 1018 30.06 847 25.01 15 59 29 -2.9 26.8
23:00 1018 30.06 847 25.01 15 59 28 -3.1 26.5
23:05 1018 30.06 847 25.01 15 58.9 29 -2.7 27.2
23:10 1018 30.06 847 25.01 14.9 58.8 29 -3 26.6
23:15 1018 30.06 847 25.01 14.7 58.5 30 -2.6 27.2
23:20 1018 30.06 847 25.01 14.6 58.3 29 -3.3 26
23:25 1018 30.06 847 25.01 14.8 58.6 29 -3.1 26.5
23:30 1018 30.06 847 25.01 14.7 58.5 30 -2.7 27.2
23:35 1018 30.06 847 25.01 14.5 58.1 31 -2.3 27.8
23:40 1018 30.06 847 25.01 14.3 57.8 32 -2 28.4
23:45 1018 30.06 847 25.01 14.2 57.6 33 -1.7 29
23:50 1018 30.06 847 25.01 14 57.2 34 -1.6 29.2
23:55 1018 30.06 847 25.01 14 57.2 34 -1.5 29.2
24:00 1017 30.03 847 25.01 14 57.1 35 -1.2 29.9